createdAt,value
2022-09-10T00:02:22.329Z,2.20
2022-09-10T00:04:50.921Z,2.97
2022-09-10T00:07:19.283Z,2.65
2022-09-10T00:09:46.737Z,2.63
2022-09-10T00:12:14.903Z,2.42
2022-09-10T00:14:42.391Z,2.60
2022-09-10T00:17:11.172Z,2.55
2022-09-10T00:19:38.599Z,2.97
2022-09-10T00:22:06.046Z,2.45
2022-09-10T00:24:33.690Z,2.53
2022-09-10T00:27:01.082Z,3.00
2022-09-10T00:29:28.511Z,2.60
2022-09-10T00:31:55.935Z,2.22
2022-09-10T00:34:24.752Z,2.42
2022-09-10T00:36:52.340Z,2.40
2022-09-10T00:39:20.245Z,2.55
2022-09-10T00:44:35.653Z,1.98
2022-09-10T00:47:03.161Z,2.03
2022-09-10T00:49:33.412Z,1.75
2022-09-10T00:52:01.467Z,1.90
2022-09-10T00:54:30.504Z,2.20
2022-09-10T00:57:00.443Z,2.05
2022-09-10T00:59:27.994Z,2.50
2022-09-10T01:01:56.032Z,2.00
2022-09-10T01:04:23.663Z,1.90
2022-09-10T01:06:52.645Z,1.65
2022-09-10T01:09:20.558Z,2.60
2022-09-10T01:12:07.135Z,3.22
2022-09-10T01:14:59.715Z,2.00
2022-09-10T01:17:31.479Z,2.22
2022-09-10T01:20:10.894Z,1.95
2022-09-10T01:22:50.284Z,2.65
2022-09-10T01:25:22.590Z,3.53
2022-09-10T01:27:52.015Z,2.45
2022-09-10T01:30:21.829Z,1.90
2022-09-10T01:32:55.849Z,2.80
2022-09-10T01:35:30.348Z,2.30
2022-09-10T01:37:59.528Z,2.40
2022-09-10T01:40:30.010Z,2.20
2022-09-10T01:43:05.715Z,2.05
2022-09-10T01:45:37.177Z,1.70
2022-09-10T01:48:14.743Z,2.42
2022-09-10T01:50:50.714Z,2.28
2022-09-10T01:53:39.155Z,1.92
2022-09-10T01:56:16.767Z,1.88
2022-09-10T01:58:46.784Z,3.00
2022-09-10T02:01:26.842Z,1.90
2022-09-10T02:03:56.758Z,2.33
2022-09-10T02:06:28.225Z,2.80
2022-09-10T02:08:57.404Z,1.90
2022-09-10T02:11:26.437Z,1.30
2022-09-10T02:13:56.304Z,1.50
2022-09-10T02:16:58.182Z,2.03
2022-09-10T02:19:26.396Z,1.95
2022-09-10T02:21:55.593Z,1.67
2022-09-10T02:24:23.727Z,1.33
2022-09-10T02:26:51.197Z,1.90
2022-09-10T02:29:20.224Z,1.48
2022-09-10T02:31:47.881Z,2.30
2022-09-10T02:34:16.729Z,2.05
2022-09-10T02:36:46.984Z,1.95
2022-09-10T02:39:15.044Z,2.25
2022-09-10T02:41:42.473Z,2.42
2022-09-10T02:44:10.028Z,2.10
2022-09-10T02:46:39.350Z,2.15
2022-09-10T02:49:07.093Z,2.13
2022-09-10T02:51:38.756Z,2.42
2022-09-10T02:54:07.669Z,2.67
2022-09-10T02:59:04.018Z,2.20
2022-09-10T03:01:35.117Z,2.08
2022-09-10T03:04:06.780Z,2.10
2022-09-10T03:06:34.949Z,2.40
2022-09-10T03:09:02.626Z,2.10
2022-09-10T03:11:31.188Z,2.65
2022-09-10T03:13:59.494Z,1.90
2022-09-10T03:16:27.684Z,2.00
2022-09-10T03:18:56.077Z,2.25
2022-09-10T03:21:25.669Z,1.83
2022-09-10T03:23:53.826Z,1.65
2022-09-10T03:26:26.272Z,2.25
2022-09-10T03:28:55.085Z,2.40
2022-09-10T03:31:27.075Z,2.42
2022-09-10T03:33:54.597Z,2.00
2022-09-10T03:36:22.748Z,2.00
2022-09-10T03:38:51.912Z,2.20
2022-09-10T03:41:19.329Z,2.22
2022-09-10T03:43:49.245Z,1.95
2022-09-10T03:46:16.770Z,2.10
2022-09-10T03:48:46.857Z,2.03
2022-09-10T03:51:16.002Z,2.58
2022-09-10T03:53:43.691Z,2.88
2022-09-10T03:56:12.438Z,2.50
2022-09-10T03:58:41.063Z,2.70
2022-09-10T04:01:10.014Z,3.20
2022-09-10T04:03:42.076Z,3.20
2022-09-10T04:06:10.347Z,3.45
2022-09-10T04:08:38.307Z,3.40
2022-09-10T04:11:08.584Z,3.60
2022-09-10T04:13:37.474Z,3.78
2022-09-10T04:16:05.038Z,3.65
2022-09-10T04:18:34.982Z,3.42
2022-09-10T04:21:03.546Z,4.40
2022-09-10T04:23:32.754Z,3.55
2022-09-10T04:26:02.281Z,4.50
2022-09-10T04:28:31.204Z,4.25
2022-09-10T04:31:00.260Z,4.43
2022-09-10T04:33:27.720Z,5.05
2022-09-10T04:36:00.364Z,4.57
2022-09-10T04:38:30.264Z,5.15
2022-09-10T04:40:58.255Z,5.00
2022-09-10T04:43:26.498Z,5.28
2022-09-10T04:45:55.351Z,5.68
2022-09-10T04:48:24.756Z,5.88
2022-09-10T04:51:15.391Z,4.85
2022-09-10T04:53:45.414Z,5.20
2022-09-10T04:58:41.116Z,5.18
2022-09-10T05:01:09.084Z,5.90
2022-09-10T05:03:37.964Z,6.57
2022-09-10T05:06:07.359Z,5.78
2022-09-10T05:08:36.092Z,5.70
2022-09-10T05:11:03.581Z,6.13
2022-09-10T05:13:31.649Z,5.68
2022-09-10T05:16:01.522Z,6.43
2022-09-10T05:18:29.993Z,7.75
2022-09-10T05:20:59.480Z,5.65
2022-09-10T05:23:28.424Z,6.63
2022-09-10T05:25:57.682Z,6.10
2022-09-10T05:28:25.155Z,6.63
2022-09-10T05:30:53.092Z,7.15
2022-09-10T05:33:23.815Z,7.68
2022-09-10T05:35:52.029Z,6.35
2022-09-10T05:38:22.236Z,6.47
2022-09-10T05:40:50.855Z,7.22
2022-09-10T05:43:18.293Z,7.07
2022-09-10T05:45:47.360Z,6.80
2022-09-10T05:48:16.053Z,6.35
2022-09-10T05:50:45.429Z,6.25
2022-09-10T05:53:13.276Z,6.80
2022-09-10T05:55:43.807Z,6.88
2022-09-10T05:58:11.267Z,7.22
2022-09-10T06:00:43.067Z,9.75
2022-09-10T06:03:10.906Z,9.55
2022-09-10T06:05:50.265Z,8.63
2022-09-10T06:08:20.947Z,9.90
2022-09-10T06:10:57.658Z,9.50
2022-09-10T06:13:27.560Z,10.05
2022-09-10T06:15:56.212Z,11.63
2022-09-10T06:18:24.764Z,12.27
2022-09-10T06:23:20.484Z,10.43
2022-09-10T06:25:48.653Z,11.25
2022-09-10T06:28:17.439Z,12.05
2022-09-10T06:30:45.349Z,11.52
2022-09-10T06:33:13.128Z,10.73
2022-09-10T06:35:40.575Z,11.73
2022-09-10T06:38:08.000Z,11.32
2022-09-10T06:40:37.995Z,11.90
2022-09-10T06:43:05.983Z,10.68
2022-09-10T06:46:00.828Z,11.48
2022-09-10T06:51:17.766Z,11.48
2022-09-10T06:53:46.927Z,10.07
2022-09-10T06:56:16.309Z,8.27
2022-09-10T06:58:45.515Z,9.43
2022-09-10T07:03:46.910Z,7.45
2022-09-10T07:06:15.919Z,8.23
2022-09-10T07:08:45.175Z,7.93
2022-09-10T07:11:14.623Z,8.43
2022-09-10T07:13:43.039Z,9.20
2022-09-10T07:16:10.824Z,8.23
2022-09-10T07:21:10.777Z,7.97
2022-09-10T07:23:43.963Z,8.15
2022-09-10T07:26:12.904Z,8.20
2022-09-10T07:28:45.589Z,7.47
2022-09-10T07:31:15.563Z,7.80
2022-09-10T07:33:44.507Z,7.28
2022-09-10T07:36:13.513Z,7.35
2022-09-10T07:38:41.569Z,8.50
2022-09-10T07:41:11.156Z,8.23
2022-09-10T07:43:39.644Z,7.50
2022-09-10T07:46:07.423Z,7.60
2022-09-10T07:48:37.235Z,7.15
2022-09-10T07:51:05.707Z,7.35
2022-09-10T07:53:34.632Z,7.70
2022-09-10T07:56:03.328Z,7.88
2022-09-10T07:58:35.777Z,6.35
2022-09-10T08:01:09.025Z,7.68
2022-09-10T08:03:36.725Z,6.65
2022-09-10T08:06:06.585Z,6.32
2022-09-10T08:08:38.045Z,7.05
2022-09-10T08:11:11.212Z,7.50
2022-09-10T08:13:41.341Z,6.13
2022-09-10T08:16:12.064Z,5.18
2022-09-10T08:18:41.056Z,6.07
2022-09-10T08:21:09.086Z,5.60
2022-09-10T08:23:39.449Z,6.22
2022-09-10T08:26:08.444Z,5.72
2022-09-10T08:28:38.660Z,5.90
2022-09-10T08:31:08.960Z,5.20
2022-09-10T08:33:42.807Z,5.38
2022-09-10T08:36:11.897Z,5.78
2022-09-10T08:38:42.136Z,4.72
2022-09-10T08:41:12.116Z,4.75
2022-09-10T08:43:42.743Z,4.13
2022-09-10T08:46:15.014Z,4.93
2022-09-10T08:48:45.386Z,5.05
2022-09-10T08:51:15.871Z,4.88
2022-09-10T08:53:48.628Z,5.70
2022-09-10T08:56:17.123Z,5.07
2022-09-10T08:58:50.092Z,4.32
2022-09-10T09:01:22.517Z,4.35
2022-09-10T09:03:52.369Z,4.28
2022-09-10T09:06:26.187Z,4.40
2022-09-10T09:08:55.142Z,4.78
2022-09-10T09:11:32.401Z,4.18
2022-09-10T09:14:14.907Z,4.38
2022-09-10T09:16:49.671Z,4.38
2022-09-10T09:19:25.104Z,6.03
2022-09-10T09:21:53.696Z,4.88
2022-09-10T09:24:28.609Z,4.78
2022-09-10T09:26:57.579Z,5.32
2022-09-10T09:29:28.173Z,4.45
2022-09-10T09:31:58.863Z,4.72
2022-09-10T09:34:29.368Z,4.65
2022-09-10T09:36:58.417Z,4.70
2022-09-10T09:39:30.085Z,4.43
2022-09-10T09:42:03.167Z,3.97
2022-09-10T09:44:32.486Z,4.57
2022-09-10T09:47:00.311Z,4.60
2022-09-10T09:49:28.422Z,4.53
2022-09-10T09:51:56.946Z,4.55
2022-09-10T09:57:20.323Z,5.35
2022-09-10T09:59:48.605Z,4.80
2022-09-10T10:02:17.568Z,4.70
2022-09-10T10:04:54.912Z,4.53
2022-09-10T10:07:26.322Z,4.63
2022-09-10T10:09:53.770Z,4.85
2022-09-10T10:12:23.161Z,4.93
2022-09-10T10:14:51.299Z,4.78
2022-09-10T10:17:22.972Z,5.28
2022-09-10T10:19:58.839Z,5.30
2022-09-10T10:22:26.928Z,4.90
2022-09-10T10:24:54.780Z,5.45
2022-09-10T10:29:55.280Z,5.45
2022-09-10T10:32:25.226Z,6.22
2022-09-10T10:34:56.448Z,5.93
2022-09-10T10:37:31.833Z,7.03
2022-09-10T10:40:05.012Z,7.38
2022-09-10T10:42:35.746Z,7.43
2022-09-10T10:45:15.789Z,8.57
2022-09-10T10:47:48.400Z,9.35
2022-09-10T10:50:28.094Z,9.30
2022-09-10T10:53:11.687Z,9.18
2022-09-10T10:55:41.277Z,9.00
2022-09-10T10:58:16.605Z,10.25
2022-09-10T11:00:48.004Z,7.18
2022-09-10T11:03:20.274Z,8.93
2022-09-10T11:05:49.247Z,10.35
2022-09-10T11:08:19.350Z,10.52
2022-09-10T11:10:48.703Z,10.02
2022-09-10T11:13:21.700Z,8.85
2022-09-10T11:15:53.315Z,9.73
2022-09-10T11:18:22.968Z,9.30
2022-09-10T11:20:56.359Z,8.80
2022-09-10T11:23:27.663Z,8.25
2022-09-10T11:25:57.877Z,6.53
2022-09-10T11:28:27.364Z,6.18
2022-09-10T11:30:59.731Z,6.32
2022-09-10T11:33:31.423Z,7.88
2022-09-10T11:36:01.189Z,6.53
2022-09-10T11:38:32.323Z,7.03
2022-09-10T11:41:05.260Z,5.18
2022-09-10T11:43:38.017Z,5.22
2022-09-10T11:46:07.811Z,5.95
2022-09-10T11:48:38.162Z,5.63
2022-09-10T11:51:08.822Z,4.40
2022-09-10T11:53:36.900Z,5.30
2022-09-10T11:56:25.899Z,6.50
2022-09-10T11:58:58.727Z,6.82
2022-09-10T12:01:34.981Z,6.78
2022-09-10T12:04:18.605Z,7.05
2022-09-10T12:06:52.103Z,6.07
2022-09-10T12:09:23.391Z,6.28
2022-09-10T12:11:54.455Z,6.72
2022-09-10T12:14:22.066Z,6.03
2022-09-10T12:16:52.902Z,6.25
2022-09-10T12:19:27.556Z,5.88
2022-09-10T12:21:58.076Z,6.47
2022-09-10T12:24:27.726Z,7.97
2022-09-10T12:26:55.559Z,5.68
2022-09-10T12:32:09.213Z,5.68
2022-09-10T12:34:38.212Z,7.70
2022-09-10T12:37:19.134Z,8.18
2022-09-10T12:39:46.669Z,9.52
2022-09-10T12:42:34.461Z,11.80
2022-09-10T12:45:01.935Z,9.82
2022-09-10T12:47:34.265Z,11.48
2022-09-10T12:50:05.683Z,10.27
2022-09-10T12:52:43.736Z,13.30
2022-09-10T12:55:15.842Z,13.02
2022-09-10T12:57:47.245Z,12.32
2022-09-10T13:00:19.129Z,11.77
2022-09-10T13:02:58.159Z,13.18
2022-09-10T13:05:29.839Z,13.95
2022-09-10T13:07:59.904Z,14.20
2022-09-10T13:10:28.805Z,17.33
2022-09-10T13:12:59.167Z,16.52
2022-09-10T13:15:29.805Z,17.63
2022-09-10T13:18:16.098Z,17.00
2022-09-10T13:20:45.034Z,17.65
2022-09-10T13:23:21.499Z,17.10
2022-09-10T13:25:49.445Z,18.85
2022-09-10T13:28:35.335Z,19.50
2022-09-10T13:31:04.001Z,20.38
2022-09-10T13:33:33.150Z,20.75
2022-09-10T13:36:08.629Z,21.23
2022-09-10T13:38:50.925Z,20.65
2022-09-10T13:41:27.732Z,21.17
2022-09-10T13:44:03.767Z,20.17
2022-09-10T13:46:35.114Z,22.17
2022-09-10T13:49:06.998Z,23.60
2022-09-10T13:51:37.319Z,25.05
2022-09-10T13:54:07.360Z,24.00
2022-09-10T13:56:35.553Z,22.98
2022-09-10T13:59:03.848Z,21.90
2022-09-10T14:01:50.516Z,23.27
2022-09-10T14:04:26.127Z,22.10
2022-09-10T14:06:57.699Z,22.15
2022-09-10T14:09:26.476Z,21.63
2022-09-10T14:11:55.372Z,22.17
2022-09-10T14:14:25.262Z,19.60
2022-09-10T14:16:53.388Z,19.48
2022-09-10T14:19:23.307Z,16.77
2022-09-10T14:21:51.578Z,16.80
2022-09-10T14:24:29.009Z,18.45
2022-09-10T14:27:06.646Z,16.67
2022-09-10T14:29:34.085Z,17.40
2022-09-10T14:32:16.544Z,15.07
2022-09-10T14:34:44.024Z,17.83
2022-09-10T14:37:32.323Z,15.82
2022-09-10T14:40:06.086Z,18.30
2022-09-10T14:42:34.866Z,20.70
2022-09-10T14:45:03.476Z,17.98
2022-09-10T14:47:35.755Z,16.88
2022-09-10T14:50:24.922Z,16.33
2022-09-10T14:52:52.312Z,15.65
2022-09-10T14:55:23.353Z,16.10
2022-09-10T14:57:51.946Z,17.80
2022-09-10T15:00:19.423Z,15.73
2022-09-10T15:02:46.920Z,18.23
2022-09-10T15:05:16.133Z,18.92
2022-09-10T15:07:43.749Z,18.48
2022-09-10T15:10:11.712Z,21.63
2022-09-10T15:15:16.470Z,25.27
2022-09-10T15:17:45.232Z,22.63
2022-09-10T15:22:40.999Z,24.30
2022-09-10T15:25:10.521Z,24.23
2022-09-10T15:27:38.652Z,28.90
2022-09-10T15:30:06.788Z,24.90
2022-09-10T15:32:35.593Z,22.30
2022-09-10T15:35:03.224Z,23.08
2022-09-10T15:37:30.834Z,19.30
2022-09-10T15:39:58.609Z,21.55
2022-09-10T15:44:53.439Z,17.83
2022-09-10T15:47:20.903Z,18.02
2022-09-10T15:49:49.658Z,16.10
2022-09-10T15:52:17.072Z,14.02
2022-09-10T15:54:44.466Z,12.63
2022-09-10T15:57:11.876Z,13.35
2022-09-10T15:59:40.019Z,14.82
2022-09-10T16:02:07.439Z,16.75
2022-09-10T16:04:37.194Z,15.05
2022-09-10T16:07:08.327Z,13.57
2022-09-10T16:09:36.315Z,14.38
2022-09-10T16:12:04.209Z,15.15
2022-09-10T16:14:32.554Z,14.93
2022-09-10T16:17:00.825Z,15.52
2022-09-10T16:19:28.748Z,13.55
2022-09-10T16:21:56.176Z,12.20
2022-09-10T16:24:25.035Z,13.13
2022-09-10T16:26:52.476Z,14.13
2022-09-10T16:29:20.368Z,12.68
2022-09-10T16:34:18.266Z,13.60
2022-09-10T16:36:46.347Z,14.70
2022-09-10T16:39:15.459Z,14.70
2022-09-10T16:41:44.791Z,15.77
2022-09-10T16:44:12.759Z,15.23
2022-09-10T16:46:40.204Z,13.77
2022-09-10T16:49:12.396Z,14.98
2022-09-10T16:51:40.292Z,14.23
2022-09-10T16:56:35.907Z,15.30
2022-09-10T16:59:07.354Z,15.15
2022-09-10T17:01:35.263Z,15.90
2022-09-10T17:04:04.203Z,15.15
2022-09-10T17:06:32.011Z,15.55
2022-09-10T17:11:27.556Z,15.05
2022-09-10T17:13:56.797Z,17.10
2022-09-10T17:16:26.544Z,15.88
2022-09-10T17:18:58.079Z,16.95
2022-09-10T17:21:26.428Z,16.77
2022-09-10T17:23:54.049Z,15.80
2022-09-10T17:26:21.700Z,17.70
2022-09-10T17:28:53.188Z,15.52
2022-09-10T17:31:20.654Z,15.82
2022-09-10T17:33:49.489Z,15.45
2022-09-10T17:36:17.607Z,18.00
2022-09-10T17:38:46.052Z,17.52
2022-09-10T17:41:14.526Z,18.45
2022-09-10T17:43:42.883Z,16.73
2022-09-10T17:46:11.381Z,14.75
2022-09-10T17:48:39.374Z,14.13
2022-09-10T17:51:08.442Z,15.80
2022-09-10T17:53:35.904Z,25.63
2022-09-10T17:56:04.639Z,18.38
2022-09-10T17:58:33.121Z,18.30
2022-09-10T18:01:01.755Z,16.88
2022-09-10T18:03:29.448Z,17.30
2022-09-10T18:05:59.040Z,21.08
2022-09-10T18:08:27.799Z,22.17
2022-09-10T18:11:01.184Z,20.35
2022-09-10T18:13:29.317Z,20.23
2022-09-10T18:15:56.729Z,23.85
2022-09-10T18:18:24.147Z,58.58
2022-09-10T18:20:51.535Z,30.02
2022-09-10T18:23:19.478Z,23.38
2022-09-10T18:28:18.974Z,23.70
2022-09-10T18:30:46.425Z,28.08
2022-09-10T18:33:14.548Z,29.05
2022-09-10T18:35:42.910Z,28.70
2022-09-10T18:38:10.356Z,23.65
2022-09-10T18:40:37.829Z,26.92
2022-09-10T18:43:05.826Z,30.13
2022-09-10T18:45:34.949Z,30.38
2022-09-10T18:48:02.396Z,33.03
2022-09-10T18:50:29.817Z,24.48
2022-09-10T18:52:57.799Z,27.33
2022-09-10T18:55:25.526Z,27.63
2022-09-10T18:57:52.909Z,27.00
2022-09-10T19:00:20.413Z,28.88
2022-09-10T19:02:49.380Z,28.60
2022-09-10T19:05:16.993Z,30.27
2022-09-10T19:07:46.610Z,29.20
2022-09-10T19:10:14.108Z,27.20
2022-09-10T19:12:41.475Z,27.90
2022-09-10T19:15:09.633Z,31.00
2022-09-10T19:17:37.036Z,31.55
2022-09-10T19:20:06.522Z,28.83
2022-09-10T19:22:33.923Z,29.98
2022-09-10T19:25:01.903Z,33.28
2022-09-10T19:27:29.600Z,34.63
2022-09-10T19:29:57.021Z,33.15
2022-09-10T19:32:24.524Z,32.28
2022-09-10T19:34:52.278Z,27.52
2022-09-10T19:37:21.228Z,31.45
2022-09-10T19:39:48.965Z,28.83
2022-09-10T19:42:17.140Z,30.15
2022-09-10T19:44:44.587Z,31.35
2022-09-10T19:47:11.965Z,34.50
2022-09-10T19:49:40.004Z,30.20
2022-09-10T19:52:07.394Z,34.55
2022-09-10T19:54:36.140Z,33.47
2022-09-10T19:57:03.556Z,36.05
2022-09-10T19:59:30.953Z,32.85
2022-09-10T20:01:58.412Z,33.38
2022-09-10T20:04:25.940Z,31.70
2022-09-10T20:06:53.336Z,31.35
2022-09-10T20:09:20.710Z,33.53
2022-09-10T20:11:49.460Z,32.28
2022-09-10T20:14:16.859Z,39.00
2022-09-10T20:16:45.576Z,34.25
2022-09-10T20:19:14.377Z,33.10
2022-09-10T20:21:42.043Z,29.85
2022-09-10T20:24:09.587Z,36.47
2022-09-10T20:26:38.269Z,37.67
2022-09-10T20:29:08.243Z,32.90
2022-09-10T20:31:36.732Z,31.58
2022-09-10T20:34:04.831Z,33.88
2022-09-10T20:36:33.128Z,34.40
2022-09-10T20:39:00.532Z,36.45
2022-09-10T20:41:29.914Z,32.78
2022-09-10T20:43:58.594Z,34.97
2022-09-10T20:46:27.986Z,34.88
2022-09-10T20:48:56.739Z,34.38
2022-09-10T20:51:24.168Z,34.75
2022-09-10T20:53:51.598Z,34.80
2022-09-10T20:56:19.703Z,32.70
2022-09-10T20:58:47.793Z,38.55
2022-09-10T21:01:16.362Z,33.53
2022-09-10T21:03:45.564Z,37.80
2022-09-10T21:06:13.739Z,31.25
2022-09-10T21:08:41.837Z,32.95
2022-09-10T21:11:10.458Z,33.92
2022-09-10T21:13:38.128Z,34.13
2022-09-10T21:16:08.917Z,32.80
2022-09-10T21:18:36.457Z,34.05
2022-09-10T21:21:09.476Z,36.08
2022-09-10T21:23:41.810Z,37.10
2022-09-10T21:26:09.193Z,35.58
2022-09-10T21:28:36.592Z,34.15
2022-09-10T21:31:04.935Z,38.25
2022-09-10T21:33:32.411Z,34.22
2022-09-10T21:36:00.875Z,33.97
2022-09-10T21:38:30.377Z,33.70
2022-09-10T21:40:58.447Z,35.60
2022-09-10T21:43:26.060Z,35.60
2022-09-10T21:45:53.572Z,38.97
2022-09-10T21:48:20.976Z,35.53
2022-09-10T21:50:48.524Z,34.65
2022-09-10T21:53:16.782Z,34.70
2022-09-10T21:55:45.581Z,35.20
2022-09-10T21:58:13.949Z,41.50
2022-09-10T22:00:41.363Z,33.58
2022-09-10T22:03:10.529Z,35.70
2022-09-10T22:05:38.145Z,32.70
2022-09-10T22:08:07.094Z,32.90
2022-09-10T22:10:34.510Z,37.03
2022-09-10T22:13:03.445Z,30.70
2022-09-10T22:15:30.840Z,34.38
2022-09-10T22:17:58.259Z,35.08
2022-09-10T22:20:25.678Z,35.50
2022-09-10T22:22:53.206Z,37.20
2022-09-10T22:25:20.621Z,34.70
2022-09-10T22:27:49.200Z,38.53
2022-09-10T22:30:18.008Z,33.65
2022-09-10T22:32:45.395Z,36.67
2022-09-10T22:35:12.775Z,35.35
2022-09-10T22:37:40.146Z,33.97
2022-09-10T22:40:08.213Z,35.10
2022-09-10T22:42:35.654Z,40.13
2022-09-10T22:45:03.045Z,40.55
2022-09-10T22:47:31.874Z,36.50
2022-09-10T22:49:59.353Z,37.88
2022-09-10T22:52:27.587Z,36.63
2022-09-10T22:54:55.002Z,34.38
2022-09-10T22:57:23.127Z,36.28
2022-09-10T22:59:50.555Z,36.25
2022-09-10T23:02:17.965Z,37.25
2022-09-10T23:04:46.775Z,41.75
2022-09-10T23:07:14.716Z,35.22
2022-09-10T23:09:42.100Z,36.55
2022-09-10T23:12:10.151Z,34.17
2022-09-10T23:14:39.207Z,40.47
2022-09-10T23:17:06.597Z,33.72
2022-09-10T23:19:34.275Z,34.58
2022-09-10T23:22:03.275Z,32.97
2022-09-10T23:24:30.921Z,34.45
2022-09-10T23:26:58.292Z,33.78
2022-09-10T23:29:25.699Z,37.03
2022-09-10T23:31:54.206Z,35.63
2022-09-10T23:34:21.891Z,33.88
2022-09-10T23:36:50.105Z,33.13
2022-09-10T23:39:20.439Z,34.95
2022-09-10T23:41:47.993Z,34.00
2022-09-10T23:44:15.929Z,32.53
2022-09-10T23:46:44.442Z,33.13
2022-09-10T23:49:12.537Z,34.03
2022-09-10T23:51:40.095Z,37.72
2022-09-10T23:54:08.709Z,36.63
2022-09-10T23:56:37.766Z,30.70
2022-09-10T23:59:05.174Z,32.72
